sensor_id;sensor_type;location;lat;lon;timestamp;temperature;humidity
21891;DHT22;11110;52.386;16.940;2024-01-16T00:01:30;14.10;35.60
21891;DHT22;11110;52.386;16.940;2024-01-16T00:03:58;14.10;35.50
21891;DHT22;11110;52.386;16.940;2024-01-16T00:06:28;14.10;35.40
21891;DHT22;11110;52.386;16.940;2024-01-16T00:08:57;14.00;35.40
21891;DHT22;11110;52.386;16.940;2024-01-16T00:11:25;14.00;35.50
21891;DHT22;11110;52.386;16.940;2024-01-16T00:13:54;14.10;35.30
21891;DHT22;11110;52.386;16.940;2024-01-16T00:16:22;14.10;35.40
21891;DHT22;11110;52.386;16.940;2024-01-16T00:18:51;14.10;35.30
21891;DHT22;11110;52.386;16.940;2024-01-16T00:21:19;14.10;35.20
21891;DHT22;11110;52.386;16.940;2024-01-16T00:23:49;14.10;35.40
21891;DHT22;11110;52.386;16.940;2024-01-16T00:26:21;14.10;35.30
21891;DHT22;11110;52.386;16.940;2024-01-16T00:28:49;14.10;35.30
21891;DHT22;11110;52.386;16.940;2024-01-16T00:31:19;14.10;35.10
21891;DHT22;11110;52.386;16.940;2024-01-16T00:33:47;14.20;35.20
21891;DHT22;11110;52.386;16.940;2024-01-16T00:36:16;14.20;35.10
21891;DHT22;11110;52.386;16.940;2024-01-16T00:38:45;14.10;35.00
21891;DHT22;11110;52.386;16.940;2024-01-16T00:41:15;14.10;35.10
21891;DHT22;11110;52.386;16.940;2024-01-16T00:43:44;14.10;35.30
21891;DHT22;11110;52.386;16.940;2024-01-16T00:46:12;14.10;35.30
21891;DHT22;11110;52.386;16.940;2024-01-16T00:48:41;14.10;35.40
21891;DHT22;11110;52.386;16.940;2024-01-16T00:51:10;14.20;35.50
21891;DHT22;11110;52.386;16.940;2024-01-16T00:53:40;14.20;35.40
21891;DHT22;11110;52.386;16.940;2024-01-16T00:56:09;14.30;35.30
21891;DHT22;11110;52.386;16.940;2024-01-16T00:58:41;14.30;35.20
21891;DHT22;11110;52.386;16.940;2024-01-16T01:01:09;14.30;35.20
21891;DHT22;11110;52.386;16.940;2024-01-16T01:03:38;14.30;35.10
21891;DHT22;11110;52.386;16.940;2024-01-16T01:06:06;14.20;35.20
21891;DHT22;11110;52.386;16.940;2024-01-16T01:08:35;14.20;35.10
21891;DHT22;11110;52.386;16.940;2024-01-16T01:11:04;14.20;35.60
21891;DHT22;11110;52.386;16.940;2024-01-16T01:13:32;14.20;34.90
21891;DHT22;11110;52.386;16.940;2024-01-16T01:16:03;14.20;35.10
21891;DHT22;11110;52.386;16.940;2024-01-16T01:18:31;14.20;34.90
21891;DHT22;11110;52.386;16.940;2024-01-16T01:21:00;14.20;34.90
21891;DHT22;11110;52.386;16.940;2024-01-16T01:23:28;14.20;34.90
21891;DHT22;11110;52.386;16.940;2024-01-16T01:25:57;14.30;35.50
21891;DHT22;11110;52.386;16.940;2024-01-16T01:28:25;14.30;34.80
21891;DHT22;11110;52.386;16.940;2024-01-16T01:30:54;14.40;34.70
21891;DHT22;11110;52.386;16.940;2024-01-16T01:33:24;14.40;34.70
21891;DHT22;11110;52.386;16.940;2024-01-16T01:35:52;14.40;34.50
21891;DHT22;11110;52.386;16.940;2024-01-16T01:38:21;14.30;34.60
21891;DHT22;11110;52.386;16.940;2024-01-16T01:40:50;14.40;34.70
21891;DHT22;11110;52.386;16.940;2024-01-16T01:43:19;14.40;34.80
21891;DHT22;11110;52.386;16.940;2024-01-16T01:45:57;14.40;34.70
21891;DHT22;11110;52.386;16.940;2024-01-16T01:48:29;14.40;34.70
21891;DHT22;11110;52.386;16.940;2024-01-16T01:50:59;14.30;34.80
21891;DHT22;11110;52.386;16.940;2024-01-16T01:53:30;14.30;34.80
21891;DHT22;11110;52.386;16.940;2024-01-16T01:56:00;14.20;35.00
21891;DHT22;11110;52.386;16.940;2024-01-16T01:58:29;14.20;35.10
21891;DHT22;11110;52.386;16.940;2024-01-16T02:00:59;14.20;35.20
21891;DHT22;11110;52.386;16.940;2024-01-16T02:03:31;14.30;35.20
21891;DHT22;11110;52.386;16.940;2024-01-16T02:06:01;14.20;35.20
21891;DHT22;11110;52.386;16.940;2024-01-16T02:08:29;14.10;35.20
21891;DHT22;11110;52.386;16.940;2024-01-16T02:10:58;14.20;35.30
21891;DHT22;11110;52.386;16.940;2024-01-16T02:13:28;14.20;35.40
21891;DHT22;11110;52.386;16.940;2024-01-16T02:15:57;14.10;35.30
21891;DHT22;11110;52.386;16.940;2024-01-16T02:18:25;14.20;35.40
21891;DHT22;11110;52.386;16.940;2024-01-16T02:20:59;14.10;35.40
21891;DHT22;11110;52.386;16.940;2024-01-16T02:23:29;14.10;35.50
21891;DHT22;11110;52.386;16.940;2024-01-16T02:26:00;14.20;35.40
21891;DHT22;11110;52.386;16.940;2024-01-16T02:28:29;14.20;35.40
21891;DHT22;11110;52.386;16.940;2024-01-16T02:30:57;14.20;35.30
21891;DHT22;11110;52.386;16.940;2024-01-16T02:33:26;14.30;35.20
21891;DHT22;11110;52.386;16.940;2024-01-16T02:35:55;14.30;35.10
21891;DHT22;11110;52.386;16.940;2024-01-16T02:38:23;14.30;35.20
21891;DHT22;11110;52.386;16.940;2024-01-16T02:40:53;14.30;35.20
21891;DHT22;11110;52.386;16.940;2024-01-16T02:43:21;14.40;35.20
21891;DHT22;11110;52.386;16.940;2024-01-16T02:45:50;14.30;35.10
21891;DHT22;11110;52.386;16.940;2024-01-16T02:48:20;14.40;35.00
21891;DHT22;11110;52.386;16.940;2024-01-16T02:50:49;14.40;35.00
21891;DHT22;11110;52.386;16.940;2024-01-16T02:53:17;14.50;35.10
21891;DHT22;11110;52.386;16.940;2024-01-16T02:55:46;14.40;35.00
21891;DHT22;11110;52.386;16.940;2024-01-16T02:58:15;14.50;35.00
21891;DHT22;11110;52.386;16.940;2024-01-16T03:00:44;14.40;35.00
21891;DHT22;11110;52.386;16.940;2024-01-16T03:03:12;14.40;35.20
21891;DHT22;11110;52.386;16.940;2024-01-16T03:05:42;14.40;35.20
21891;DHT22;11110;52.386;16.940;2024-01-16T03:08:10;14.40;35.30
21891;DHT22;11110;52.386;16.940;2024-01-16T03:10:39;14.40;35.30
21891;DHT22;11110;52.386;16.940;2024-01-16T03:13:08;14.40;35.80
21891;DHT22;11110;52.386;16.940;2024-01-16T03:15:38;14.50;35.30
21891;DHT22;11110;52.386;16.940;2024-01-16T03:18:07;14.40;35.20
21891;DHT22;11110;52.386;16.940;2024-01-16T03:20:36;14.40;35.20
21891;DHT22;11110;52.386;16.940;2024-01-16T03:23:05;14.40;35.10
21891;DHT22;11110;52.386;16.940;2024-01-16T03:25:33;14.40;35.00
21891;DHT22;11110;52.386;16.940;2024-01-16T03:28:06;14.30;34.80
21891;DHT22;11110;52.386;16.940;2024-01-16T03:30:35;14.30;34.60
21891;DHT22;11110;52.386;16.940;2024-01-16T03:33:05;14.30;34.70
21891;DHT22;11110;52.386;16.940;2024-01-16T03:35:34;14.30;34.70
21891;DHT22;11110;52.386;16.940;2024-01-16T03:38:03;14.40;34.50
21891;DHT22;11110;52.386;16.940;2024-01-16T03:40:31;14.30;34.20
21891;DHT22;11110;52.386;16.940;2024-01-16T03:43:01;14.30;34.40
21891;DHT22;11110;52.386;16.940;2024-01-16T03:45:32;14.40;34.30
21891;DHT22;11110;52.386;16.940;2024-01-16T03:48:02;14.40;34.20
21891;DHT22;11110;52.386;16.940;2024-01-16T03:50:33;14.40;34.20
21891;DHT22;11110;52.386;16.940;2024-01-16T03:53:03;14.40;34.20
21891;DHT22;11110;52.386;16.940;2024-01-16T03:55:32;14.40;34.10
21891;DHT22;11110;52.386;16.940;2024-01-16T03:58:01;14.40;34.00
21891;DHT22;11110;52.386;16.940;2024-01-16T04:00:30;14.40;34.00
21891;DHT22;11110;52.386;16.940;2024-01-16T04:02:58;14.40;34.00
21891;DHT22;11110;52.386;16.940;2024-01-16T04:05:27;14.50;34.00
21891;DHT22;11110;52.386;16.940;2024-01-16T04:07:58;14.40;34.00
21891;DHT22;11110;52.386;16.940;2024-01-16T04:10:26;14.40;34.10
21891;DHT22;11110;52.386;16.940;2024-01-16T04:12:55;14.40;34.20
21891;DHT22;11110;52.386;16.940;2024-01-16T04:15:24;14.40;34.20
21891;DHT22;11110;52.386;16.940;2024-01-16T04:17:51;14.40;34.10
21891;DHT22;11110;52.386;16.940;2024-01-16T04:20:19;14.50;34.10
21891;DHT22;11110;52.386;16.940;2024-01-16T04:22:49;14.40;34.20
21891;DHT22;11110;52.386;16.940;2024-01-16T04:25:19;14.40;34.30
21891;DHT22;11110;52.386;16.940;2024-01-16T04:27:47;14.40;34.30
21891;DHT22;11110;52.386;16.940;2024-01-16T04:30:16;14.30;34.30
21891;DHT22;11110;52.386;16.940;2024-01-16T04:32:47;14.40;34.30
21891;DHT22;11110;52.386;16.940;2024-01-16T04:35:16;14.40;34.20
21891;DHT22;11110;52.386;16.940;2024-01-16T04:37:44;14.30;34.20
21891;DHT22;11110;52.386;16.940;2024-01-16T04:40:13;14.20;34.20
21891;DHT22;11110;52.386;16.940;2024-01-16T04:42:43;14.10;34.30
21891;DHT22;11110;52.386;16.940;2024-01-16T04:45:12;14.10;34.40
21891;DHT22;11110;52.386;16.940;2024-01-16T04:47:40;14.10;34.40
21891;DHT22;11110;52.386;16.940;2024-01-16T04:50:10;14.10;34.40
21891;DHT22;11110;52.386;16.940;2024-01-16T04:52:39;14.10;34.40
21891;DHT22;11110;52.386;16.940;2024-01-16T04:55:07;14.10;34.50
21891;DHT22;11110;52.386;16.940;2024-01-16T04:57:36;14.00;34.50
21891;DHT22;11110;52.386;16.940;2024-01-16T05:00:07;14.00;34.60
21891;DHT22;11110;52.386;16.940;2024-01-16T05:02:36;14.00;34.60
21891;DHT22;11110;52.386;16.940;2024-01-16T05:05:06;14.00;34.60
21891;DHT22;11110;52.386;16.940;2024-01-16T05:07:34;14.00;34.60
21891;DHT22;11110;52.386;16.940;2024-01-16T05:10:04;14.10;34.60
21891;DHT22;11110;52.386;16.940;2024-01-16T05:12:33;14.00;34.60
21891;DHT22;11110;52.386;16.940;2024-01-16T05:15:01;14.00;34.50
21891;DHT22;11110;52.386;16.940;2024-01-16T05:17:31;14.10;34.60
21891;DHT22;11110;52.386;16.940;2024-01-16T05:20:03;14.10;34.60
21891;DHT22;11110;52.386;16.940;2024-01-16T05:22:32;14.10;34.60
21891;DHT22;11110;52.386;16.940;2024-01-16T05:25:02;14.10;34.50
21891;DHT22;11110;52.386;16.940;2024-01-16T05:27:30;14.10;34.40
21891;DHT22;11110;52.386;16.940;2024-01-16T05:29:59;14.10;34.40
21891;DHT22;11110;52.386;16.940;2024-01-16T05:32:27;14.10;34.40
21891;DHT22;11110;52.386;16.940;2024-01-16T05:34:57;14.10;34.30
21891;DHT22;11110;52.386;16.940;2024-01-16T05:37:26;14.10;34.30
21891;DHT22;11110;52.386;16.940;2024-01-16T05:39:56;14.10;34.30
21891;DHT22;11110;52.386;16.940;2024-01-16T05:42:25;14.10;34.30
21891;DHT22;11110;52.386;16.940;2024-01-16T05:44:54;14.10;34.20
21891;DHT22;11110;52.386;16.940;2024-01-16T05:47:22;14.10;34.20
21891;DHT22;11110;52.386;16.940;2024-01-16T05:49:55;14.10;34.20
21891;DHT22;11110;52.386;16.940;2024-01-16T05:52:25;14.10;34.10
21891;DHT22;11110;52.386;16.940;2024-01-16T05:54:54;14.10;34.10
21891;DHT22;11110;52.386;16.940;2024-01-16T05:57:24;14.00;34.00
21891;DHT22;11110;52.386;16.940;2024-01-16T05:59:53;14.00;34.00
21891;DHT22;11110;52.386;16.940;2024-01-16T06:02:22;13.90;34.10
21891;DHT22;11110;52.386;16.940;2024-01-16T06:04:52;13.80;34.20
21891;DHT22;11110;52.386;16.940;2024-01-16T06:07:20;13.80;34.40
21891;DHT22;11110;52.386;16.940;2024-01-16T06:09:49;13.80;34.40
21891;DHT22;11110;52.386;16.940;2024-01-16T06:12:17;13.70;34.50
21891;DHT22;11110;52.386;16.940;2024-01-16T06:14:46;13.70;34.50
21891;DHT22;11110;52.386;16.940;2024-01-16T06:17:14;13.70;34.60
21891;DHT22;11110;52.386;16.940;2024-01-16T06:19:43;13.70;34.60
21891;DHT22;11110;52.386;16.940;2024-01-16T06:22:11;13.60;34.60
21891;DHT22;11110;52.386;16.940;2024-01-16T06:24:40;13.60;34.50
21891;DHT22;11110;52.386;16.940;2024-01-16T06:27:10;13.60;34.60
21891;DHT22;11110;52.386;16.940;2024-01-16T06:29:41;13.60;34.70
21891;DHT22;11110;52.386;16.940;2024-01-16T06:32:10;13.50;34.50
21891;DHT22;11110;52.386;16.940;2024-01-16T06:34:39;13.60;34.50
21891;DHT22;11110;52.386;16.940;2024-01-16T06:37:07;13.50;34.50
21891;DHT22;11110;52.386;16.940;2024-01-16T06:39:36;13.50;34.60
21891;DHT22;11110;52.386;16.940;2024-01-16T06:42:06;13.50;34.60
21891;DHT22;11110;52.386;16.940;2024-01-16T06:44:39;13.40;34.60
21891;DHT22;11110;52.386;16.940;2024-01-16T06:47:07;13.40;34.60
21891;DHT22;11110;52.386;16.940;2024-01-16T06:49:36;13.40;34.70
21891;DHT22;11110;52.386;16.940;2024-01-16T06:52:06;13.40;34.70
21891;DHT22;11110;52.386;16.940;2024-01-16T06:54:35;13.50;34.80
21891;DHT22;11110;52.386;16.940;2024-01-16T06:57:04;13.40;34.70
21891;DHT22;11110;52.386;16.940;2024-01-16T06:59:32;13.60;34.80
21891;DHT22;11110;52.386;16.940;2024-01-16T07:02:02;13.50;34.70
21891;DHT22;11110;52.386;16.940;2024-01-16T07:04:32;13.50;34.70
21891;DHT22;11110;52.386;16.940;2024-01-16T07:07:00;13.50;35.40
21891;DHT22;11110;52.386;16.940;2024-01-16T07:09:29;13.50;34.80
21891;DHT22;11110;52.386;16.940;2024-01-16T07:11:58;13.50;34.90
21891;DHT22;11110;52.386;16.940;2024-01-16T07:14:26;13.50;35.00
21891;DHT22;11110;52.386;16.940;2024-01-16T07:16:55;13.50;35.10
21891;DHT22;11110;52.386;16.940;2024-01-16T07:19:25;13.50;35.10
21891;DHT22;11110;52.386;16.940;2024-01-16T07:21:53;13.60;35.10
21891;DHT22;11110;52.386;16.940;2024-01-16T07:24:22;13.60;35.10
21891;DHT22;11110;52.386;16.940;2024-01-16T07:26:50;13.60;35.10
21891;DHT22;11110;52.386;16.940;2024-01-16T07:29:21;13.70;35.10
21891;DHT22;11110;52.386;16.940;2024-01-16T07:31:49;13.70;35.10
21891;DHT22;11110;52.386;16.940;2024-01-16T07:34:19;13.80;35.00
21891;DHT22;11110;52.386;16.940;2024-01-16T07:36:50;13.80;35.00
21891;DHT22;11110;52.386;16.940;2024-01-16T07:39:19;13.90;34.90
21891;DHT22;11110;52.386;16.940;2024-01-16T07:41:49;13.80;34.80
21891;DHT22;11110;52.386;16.940;2024-01-16T07:44:18;13.90;34.90
21891;DHT22;11110;52.386;16.940;2024-01-16T07:46:47;13.90;35.00
21891;DHT22;11110;52.386;16.940;2024-01-16T07:49:15;13.90;34.80
21891;DHT22;11110;52.386;16.940;2024-01-16T07:51:44;13.90;34.80
21891;DHT22;11110;52.386;16.940;2024-01-16T07:54:14;13.80;34.70
21891;DHT22;11110;52.386;16.940;2024-01-16T07:56:42;13.80;34.80
21891;DHT22;11110;52.386;16.940;2024-01-16T07:59:11;13.80;34.40
21891;DHT22;11110;52.386;16.940;2024-01-16T08:01:41;13.80;34.40
21891;DHT22;11110;52.386;16.940;2024-01-16T08:04:09;14.00;34.70
21891;DHT22;11110;52.386;16.940;2024-01-16T08:06:38;13.80;34.40
21891;DHT22;11110;52.386;16.940;2024-01-16T08:09:07;13.70;34.60
21891;DHT22;11110;52.386;16.940;2024-01-16T08:11:37;13.70;34.70
21891;DHT22;11110;52.386;16.940;2024-01-16T08:14:07;13.70;34.80
21891;DHT22;11110;52.386;16.940;2024-01-16T08:16:35;13.70;34.80
21891;DHT22;11110;52.386;16.940;2024-01-16T08:19:04;13.80;34.90
21891;DHT22;11110;52.386;16.940;2024-01-16T08:21:32;13.80;34.70
21891;DHT22;11110;52.386;16.940;2024-01-16T08:24:01;13.80;34.70
21891;DHT22;11110;52.386;16.940;2024-01-16T08:26:29;13.70;34.70
21891;DHT22;11110;52.386;16.940;2024-01-16T08:28:59;13.80;34.80
21891;DHT22;11110;52.386;16.940;2024-01-16T08:31:28;13.80;34.60
21891;DHT22;11110;52.386;16.940;2024-01-16T08:33:56;13.70;34.70
21891;DHT22;11110;52.386;16.940;2024-01-16T08:36:25;13.70;34.70
21891;DHT22;11110;52.386;16.940;2024-01-16T08:38:54;13.70;34.70
21891;DHT22;11110;52.386;16.940;2024-01-16T08:41:22;13.60;34.50
21891;DHT22;11110;52.386;16.940;2024-01-16T08:43:51;13.60;34.40
21891;DHT22;11110;52.386;16.940;2024-01-16T08:46:22;13.70;34.60
21891;DHT22;11110;52.386;16.940;2024-01-16T08:48:51;13.70;35.10
21891;DHT22;11110;52.386;16.940;2024-01-16T08:51:19;13.70;34.30
21891;DHT22;11110;52.386;16.940;2024-01-16T08:53:48;13.70;34.10
21891;DHT22;11110;52.386;16.940;2024-01-16T08:56:16;13.60;34.90
21891;DHT22;11110;52.386;16.940;2024-01-16T08:58:45;13.60;34.30
21891;DHT22;11110;52.386;16.940;2024-01-16T09:01:13;13.60;34.60
21891;DHT22;11110;52.386;16.940;2024-01-16T09:03:44;13.50;34.70
21891;DHT22;11110;52.386;16.940;2024-01-16T09:06:13;13.60;34.70
21891;DHT22;11110;52.386;16.940;2024-01-16T09:08:42;13.50;34.70
21891;DHT22;11110;52.386;16.940;2024-01-16T09:11:11;13.50;34.40
21891;DHT22;11110;52.386;16.940;2024-01-16T09:13:40;13.60;34.30
21891;DHT22;11110;52.386;16.940;2024-01-16T09:16:08;13.60;34.10
21891;DHT22;11110;52.386;16.940;2024-01-16T09:18:37;13.70;34.10
21891;DHT22;11110;52.386;16.940;2024-01-16T09:21:07;13.60;34.00
21891;DHT22;11110;52.386;16.940;2024-01-16T09:23:36;13.70;34.10
21891;DHT22;11110;52.386;16.940;2024-01-16T09:26:04;13.70;34.20
21891;DHT22;11110;52.386;16.940;2024-01-16T09:28:33;13.80;34.40
21891;DHT22;11110;52.386;16.940;2024-01-16T09:31:01;13.70;33.60
21891;DHT22;11110;52.386;16.940;2024-01-16T09:33:31;13.60;33.50
21891;DHT22;11110;52.386;16.940;2024-01-16T09:35:59;13.60;33.60
21891;DHT22;11110;52.386;16.940;2024-01-16T09:38:29;13.60;33.70
21891;DHT22;11110;52.386;16.940;2024-01-16T09:40:58;13.60;33.70
21891;DHT22;11110;52.386;16.940;2024-01-16T09:43:27;13.70;33.60
21891;DHT22;11110;52.386;16.940;2024-01-16T09:45:56;13.70;33.60
21891;DHT22;11110;52.386;16.940;2024-01-16T09:48:30;13.70;33.50
21891;DHT22;11110;52.386;16.940;2024-01-16T09:50:59;13.70;33.80
21891;DHT22;11110;52.386;16.940;2024-01-16T09:53:30;13.80;33.70
21891;DHT22;11110;52.386;16.940;2024-01-16T09:56:02;13.80;33.70
21891;DHT22;11110;52.386;16.940;2024-01-16T09:58:34;14.00;33.60
21891;DHT22;11110;52.386;16.940;2024-01-16T10:01:05;14.00;33.30
21891;DHT22;11110;52.386;16.940;2024-01-16T10:03:34;14.00;33.50
21891;DHT22;11110;52.386;16.940;2024-01-16T10:06:04;14.00;33.70
21891;DHT22;11110;52.386;16.940;2024-01-16T10:08:36;14.10;33.70
21891;DHT22;11110;52.386;16.940;2024-01-16T10:11:05;14.20;33.80
21891;DHT22;11110;52.386;16.940;2024-01-16T10:13:34;14.30;33.40
21891;DHT22;11110;52.386;16.940;2024-01-16T10:16:03;14.30;33.20
21891;DHT22;11110;52.386;16.940;2024-01-16T10:18:33;14.30;33.20
21891;DHT22;11110;52.386;16.940;2024-01-16T10:21:02;14.30;33.20
21891;DHT22;11110;52.386;16.940;2024-01-16T10:23:32;14.40;33.20
21891;DHT22;11110;52.386;16.940;2024-01-16T10:26:10;14.50;33.60
21891;DHT22;11110;52.386;16.940;2024-01-16T10:28:39;14.60;33.40
21891;DHT22;11110;52.386;16.940;2024-01-16T10:31:09;14.60;33.40
21891;DHT22;11110;52.386;16.940;2024-01-16T10:33:39;14.60;33.40
21891;DHT22;11110;52.386;16.940;2024-01-16T10:36:09;14.70;33.20
21891;DHT22;11110;52.386;16.940;2024-01-16T10:38:40;14.80;32.90
21891;DHT22;11110;52.386;16.940;2024-01-16T10:41:11;14.70;32.90
21891;DHT22;11110;52.386;16.940;2024-01-16T10:43:41;14.80;32.90
21891;DHT22;11110;52.386;16.940;2024-01-16T10:46:12;14.90;33.50
21891;DHT22;11110;52.386;16.940;2024-01-16T10:48:43;14.90;32.80
21891;DHT22;11110;52.386;16.940;2024-01-16T10:51:15;15.00;32.50
21891;DHT22;11110;52.386;16.940;2024-01-16T10:53:44;14.90;32.60
21891;DHT22;11110;52.386;16.940;2024-01-16T10:56:17;14.80;32.80
21891;DHT22;11110;52.386;16.940;2024-01-16T10:58:51;14.70;32.90
21891;DHT22;11110;52.386;16.940;2024-01-16T11:01:24;14.80;33.20
21891;DHT22;11110;52.386;16.940;2024-01-16T11:03:54;14.70;33.00
21891;DHT22;11110;52.386;16.940;2024-01-16T11:06:25;14.70;32.90
21891;DHT22;11110;52.386;16.940;2024-01-16T11:08:56;14.80;32.60
21891;DHT22;11110;52.386;16.940;2024-01-16T11:11:27;14.90;32.60
21891;DHT22;11110;52.386;16.940;2024-01-16T11:13:57;14.90;31.90
21891;DHT22;11110;52.386;16.940;2024-01-16T11:16:27;14.80;31.90
21891;DHT22;11110;52.386;16.940;2024-01-16T11:18:57;14.70;32.00
21891;DHT22;11110;52.386;16.940;2024-01-16T11:21:46;14.70;32.00
21891;DHT22;11110;52.386;16.940;2024-01-16T11:24:15;14.70;31.90
21891;DHT22;11110;52.386;16.940;2024-01-16T11:26:45;14.70;31.80
21891;DHT22;11110;52.386;16.940;2024-01-16T11:29:35;14.80;31.80
21891;DHT22;11110;52.386;16.940;2024-01-16T11:32:07;14.70;31.90
21891;DHT22;11110;52.386;16.940;2024-01-16T11:34:54;14.70;32.00
21891;DHT22;11110;52.386;16.940;2024-01-16T11:37:27;14.80;32.70
21891;DHT22;11110;52.386;16.940;2024-01-16T11:40:21;14.80;31.90
21891;DHT22;11110;52.386;16.940;2024-01-16T11:42:52;14.90;31.60
21891;DHT22;11110;52.386;16.940;2024-01-16T11:45:50;14.90;31.60
21891;DHT22;11110;52.386;16.940;2024-01-16T11:48:19;14.90;31.40
21891;DHT22;11110;52.386;16.940;2024-01-16T11:50:48;14.90;31.60
21891;DHT22;11110;52.386;16.940;2024-01-16T11:53:36;15.80;32.00
21891;DHT22;11110;52.386;16.940;2024-01-16T11:56:24;15.00;31.50
21891;DHT22;11110;52.386;16.940;2024-01-16T11:59:41;15.00;31.70
21891;DHT22;11110;52.386;16.940;2024-01-16T12:02:17;15.00;31.60
21891;DHT22;11110;52.386;16.940;2024-01-16T12:04:52;15.00;31.60
21891;DHT22;11110;52.386;16.940;2024-01-16T12:07:22;15.10;31.50
21891;DHT22;11110;52.386;16.940;2024-01-16T12:09:51;14.90;31.60
21891;DHT22;11110;52.386;16.940;2024-01-16T12:12:19;14.80;31.80
21891;DHT22;11110;52.386;16.940;2024-01-16T12:14:52;14.90;31.90
21891;DHT22;11110;52.386;16.940;2024-01-16T12:17:22;14.80;32.00
21891;DHT22;11110;52.386;16.940;2024-01-16T12:19:50;14.90;32.40
21891;DHT22;11110;52.386;16.940;2024-01-16T12:22:19;14.80;32.10
21891;DHT22;11110;52.386;16.940;2024-01-16T12:24:50;14.80;32.20
21891;DHT22;11110;52.386;16.940;2024-01-16T12:27:18;14.80;32.20
21891;DHT22;11110;52.386;16.940;2024-01-16T12:29:47;14.80;32.20
21891;DHT22;11110;52.386;16.940;2024-01-16T12:32:20;14.80;32.30
21891;DHT22;11110;52.386;16.940;2024-01-16T12:34:49;14.80;32.10
21891;DHT22;11110;52.386;16.940;2024-01-16T12:37:18;14.80;32.10
21891;DHT22;11110;52.386;16.940;2024-01-16T12:39:47;14.80;32.20
21891;DHT22;11110;52.386;16.940;2024-01-16T12:42:18;14.80;32.30
21891;DHT22;11110;52.386;16.940;2024-01-16T12:44:47;14.80;32.40
21891;DHT22;11110;52.386;16.940;2024-01-16T12:47:16;14.80;32.30
21891;DHT22;11110;52.386;16.940;2024-01-16T12:49:48;14.70;32.50
21891;DHT22;11110;52.386;16.940;2024-01-16T12:52:17;14.80;32.60
21891;DHT22;11110;52.386;16.940;2024-01-16T12:54:48;14.90;32.70
21891;DHT22;11110;52.386;16.940;2024-01-16T12:57:18;14.90;32.80
21891;DHT22;11110;52.386;16.940;2024-01-16T12:59:48;15.00;32.80
21891;DHT22;11110;52.386;16.940;2024-01-16T13:02:21;15.10;32.70
21891;DHT22;11110;52.386;16.940;2024-01-16T13:04:59;14.70;32.60
21891;DHT22;11110;52.386;16.940;2024-01-16T13:07:30;15.00;32.90
21891;DHT22;11110;52.386;16.940;2024-01-16T13:10:08;15.00;32.90
21891;DHT22;11110;52.386;16.940;2024-01-16T13:12:39;15.00;32.80
21891;DHT22;11110;52.386;16.940;2024-01-16T13:15:08;15.00;32.80
21891;DHT22;11110;52.386;16.940;2024-01-16T13:17:38;14.90;32.90
21891;DHT22;11110;52.386;16.940;2024-01-16T13:20:09;14.90;32.90
21891;DHT22;11110;52.386;16.940;2024-01-16T13:22:40;14.90;33.00
21891;DHT22;11110;52.386;16.940;2024-01-16T13:25:14;14.90;33.10
21891;DHT22;11110;52.386;16.940;2024-01-16T13:27:43;14.90;33.50
21891;DHT22;11110;52.386;16.940;2024-01-16T13:30:12;15.00;33.80
21891;DHT22;11110;52.386;16.940;2024-01-16T13:32:42;15.10;34.10
21891;DHT22;11110;52.386;16.940;2024-01-16T13:35:12;15.10;34.10
21891;DHT22;11110;52.386;16.940;2024-01-16T13:37:41;15.20;34.40
21891;DHT22;11110;52.386;16.940;2024-01-16T13:40:09;15.20;34.40
21891;DHT22;11110;52.386;16.940;2024-01-16T13:42:42;15.20;34.40
21891;DHT22;11110;52.386;16.940;2024-01-16T13:45:11;15.30;34.50
21891;DHT22;11110;52.386;16.940;2024-01-16T13:47:41;15.30;34.50
21891;DHT22;11110;52.386;16.940;2024-01-16T13:50:09;15.40;34.60
21891;DHT22;11110;52.386;16.940;2024-01-16T13:52:40;15.40;34.70
21891;DHT22;11110;52.386;16.940;2024-01-16T13:55:08;15.40;34.70
21891;DHT22;11110;52.386;16.940;2024-01-16T13:57:37;15.50;34.70
21891;DHT22;11110;52.386;16.940;2024-01-16T14:00:07;15.50;34.80
21891;DHT22;11110;52.386;16.940;2024-01-16T14:02:40;15.50;34.80
21891;DHT22;11110;52.386;16.940;2024-01-16T14:05:09;15.60;34.80
21891;DHT22;11110;52.386;16.940;2024-01-16T14:07:40;15.70;34.80
21891;DHT22;11110;52.386;16.940;2024-01-16T14:10:09;15.70;34.80
21891;DHT22;11110;52.386;16.940;2024-01-16T14:12:39;15.70;34.70
21891;DHT22;11110;52.386;16.940;2024-01-16T14:15:10;15.70;34.70
21891;DHT22;11110;52.386;16.940;2024-01-16T14:17:47;15.80;34.70
21891;DHT22;11110;52.386;16.940;2024-01-16T14:20:17;15.80;34.50
21891;DHT22;11110;52.386;16.940;2024-01-16T14:22:52;15.80;34.40
21891;DHT22;11110;52.386;16.940;2024-01-16T14:25:22;15.80;34.30
21891;DHT22;11110;52.386;16.940;2024-01-16T14:27:56;15.80;34.30
21891;DHT22;11110;52.386;16.940;2024-01-16T14:30:26;15.80;34.30
21891;DHT22;11110;52.386;16.940;2024-01-16T14:32:55;15.80;34.30
21891;DHT22;11110;52.386;16.940;2024-01-16T14:35:24;15.80;34.40
21891;DHT22;11110;52.386;16.940;2024-01-16T14:37:54;15.80;34.40
21891;DHT22;11110;52.386;16.940;2024-01-16T14:40:23;15.90;34.50
21891;DHT22;11110;52.386;16.940;2024-01-16T14:42:54;15.90;34.50
21891;DHT22;11110;52.386;16.940;2024-01-16T14:45:24;15.90;34.60
21891;DHT22;11110;52.386;16.940;2024-01-16T14:47:53;15.80;34.60
21891;DHT22;11110;52.386;16.940;2024-01-16T19:50:54;15.70;41.30
21891;DHT22;11110;52.386;16.940;2024-01-16T21:03:26;16.10;41.20
21891;DHT22;11110;52.386;16.940;2024-01-16T21:33:42;15.90;41.50
21891;DHT22;11110;52.386;16.940;2024-01-16T21:50:12;15.90;41.70
21891;DHT22;11110;52.386;16.940;2024-01-16T21:57:37;15.90;41.60
21891;DHT22;11110;52.386;16.940;2024-01-16T23:04:53;16.10;40.70
